sensor_id;sensor_type;location;lat;lon;timestamp;pressure;altitude;pressure_sealevel;temperature;humidity
47726;BME280;33483;48.294;16.388;2023-03-01T00:02:12;100637.56;;;-2.31;100.00
47726;BME280;33483;48.294;16.388;2023-03-01T00:04:39;100642.53;;;-2.26;100.00
47726;BME280;33483;48.294;16.388;2023-03-01T00:07:06;100633.91;;;-2.21;100.00
47726;BME280;33483;48.294;16.388;2023-03-01T00:09:33;100635.81;;;-2.18;100.00
47726;BME280;33483;48.294;16.388;2023-03-01T00:12:03;100642.47;;;-2.22;100.00
47726;BME280;33483;48.294;16.388;2023-03-01T00:14:30;100639.75;;;-2.22;100.00
47726;BME280;33483;48.294;16.388;2023-03-01T00:16:57;100641.69;;;-2.23;100.00
47726;BME280;33483;48.294;16.388;2023-03-01T00:19:24;100650.63;;;-2.22;100.00
47726;BME280;33483;48.294;16.388;2023-03-01T00:21:52;100650.63;;;-2.22;100.00
47726;BME280;33483;48.294;16.388;2023-03-01T00:24:19;100652.97;;;-2.24;100.00
47726;BME280;33483;48.294;16.388;2023-03-01T00:26:46;100646.78;;;-2.25;100.00
47726;BME280;33483;48.294;16.388;2023-03-01T00:29:13;100642.53;;;-2.26;100.00
47726;BME280;33483;48.294;16.388;2023-03-01T00:31:40;100646.44;;;-2.27;100.00
47726;BME280;33483;48.294;16.388;2023-03-01T00:34:07;100642.53;;;-2.26;100.00
47726;BME280;33483;48.294;16.388;2023-03-01T00:36:35;100633.97;;;-2.24;100.00
47726;BME280;33483;48.294;16.388;2023-03-01T00:39:04;100639.03;;;-2.27;100.00
47726;BME280;33483;48.294;16.388;2023-03-01T00:41:32;100642.13;;;-2.24;100.00
47726;BME280;33483;48.294;16.388;2023-03-01T00:44:03;100636.81;;;-2.32;100.00
47726;BME280;33483;48.294;16.388;2023-03-01T00:46:30;100638.13;;;-2.40;100.00
47726;BME280;33483;48.294;16.388;2023-03-01T00:48:58;100624.59;;;-2.43;100.00
47726;BME280;33483;48.294;16.388;2023-03-01T00:51:29;100632.81;;;-2.47;100.00
47726;BME280;33483;48.294;16.388;2023-03-01T00:53:57;100627.78;;;-2.48;100.00
47726;BME280;33483;48.294;16.388;2023-03-01T00:56:25;100625.91;;;-2.51;100.00
47726;BME280;33483;48.294;16.388;2023-03-01T00:58:52;100621.28;;;-2.54;100.00
47726;BME280;33483;48.294;16.388;2023-03-01T01:01:21;100623.69;;;-2.60;100.00
47726;BME280;33483;48.294;16.388;2023-03-01T01:03:52;100618.38;;;-2.67;100.00
47726;BME280;33483;48.294;16.388;2023-03-01T01:06:21;100614.56;;;-2.69;100.00
47726;BME280;33483;48.294;16.388;2023-03-01T01:08:49;100616.50;;;-2.70;100.00
47726;BME280;33483;48.294;16.388;2023-03-01T01:11:16;100614.19;;;-2.71;100.00
47726;BME280;33483;48.294;16.388;2023-03-01T01:13:44;100614.25;;;-2.75;100.00
47726;BME280;33483;48.294;16.388;2023-03-01T01:16:14;100616.97;;;-2.75;100.00
47726;BME280;33483;48.294;16.388;2023-03-01T01:18:44;100610.81;;;-2.79;100.00
47726;BME280;33483;48.294;16.388;2023-03-01T01:21:15;100612.41;;;-2.81;100.00
47726;BME280;33483;48.294;16.388;2023-03-01T01:23:43;100612.72;;;-2.76;100.00
47726;BME280;33483;48.294;16.388;2023-03-01T01:28:46;100612.31;;;-2.74;100.00
47726;BME280;33483;48.294;16.388;2023-03-01T01:31:14;100604.66;;;-2.79;100.00
47726;BME280;33483;48.294;16.388;2023-03-01T01:33:42;100599.28;;;-2.83;100.00
47726;BME280;33483;48.294;16.388;2023-03-01T01:36:09;100586.72;;;-2.73;100.00
47726;BME280;33483;48.294;16.388;2023-03-01T01:38:36;100596.72;;;-2.70;100.00
47726;BME280;33483;48.294;16.388;2023-03-01T01:41:07;100597.91;;;-2.71;100.00
47726;BME280;33483;48.294;16.388;2023-03-01T01:43:36;100598.34;;;-2.73;100.00
47726;BME280;33483;48.294;16.388;2023-03-01T01:46:10;100592.91;;;-2.73;100.00
47726;BME280;33483;48.294;16.388;2023-03-01T01:48:41;100591.59;;;-2.65;100.00
47726;BME280;33483;48.294;16.388;2023-03-01T01:51:14;100588.41;;;-2.60;100.00
47726;BME280;33483;48.294;16.388;2023-03-01T01:53:44;100591.38;;;-2.51;100.00
47726;BME280;33483;48.294;16.388;2023-03-01T01:56:12;100581.94;;;-2.43;100.00
47726;BME280;33483;48.294;16.388;2023-03-01T01:58:41;100589.50;;;-2.31;100.00
47726;BME280;33483;48.294;16.388;2023-03-01T02:01:13;100581.56;;;-2.21;100.00
47726;BME280;33483;48.294;16.388;2023-03-01T02:03:40;100577.53;;;-2.13;100.00
47726;BME280;33483;48.294;16.388;2023-03-01T02:06:17;100579.69;;;-2.05;100.00
47726;BME280;33483;48.294;16.388;2023-03-01T02:08:47;100584.59;;;-1.96;100.00
47726;BME280;33483;48.294;16.388;2023-03-01T02:11:15;100581.72;;;-1.89;100.00
47726;BME280;33483;48.294;16.388;2023-03-01T02:13:43;100573.09;;;-1.84;100.00
47726;BME280;33483;48.294;16.388;2023-03-01T02:16:13;100577.22;;;-1.76;100.00
47726;BME280;33483;48.294;16.388;2023-03-01T02:18:41;100576.66;;;-1.68;100.00
47726;BME280;33483;48.294;16.388;2023-03-01T02:23:55;100578.44;;;-1.61;100.00
47726;BME280;33483;48.294;16.388;2023-03-01T02:26:32;100581.88;;;-1.57;100.00
47726;BME280;33483;48.294;16.388;2023-03-01T02:29:01;100578.31;;;-1.54;100.00
47726;BME280;33483;48.294;16.388;2023-03-01T02:31:28;100589.19;;;-1.54;100.00
47726;BME280;33483;48.294;16.388;2023-03-01T02:34:22;100582.88;;;-1.51;100.00
47726;BME280;33483;48.294;16.388;2023-03-01T02:36:55;100579.59;;;-1.43;100.00
47726;BME280;33483;48.294;16.388;2023-03-01T02:39:26;100586.16;;;-1.40;100.00
47726;BME280;33483;48.294;16.388;2023-03-01T02:41:56;100581.81;;;-1.38;100.00
47726;BME280;33483;48.294;16.388;2023-03-01T02:44:23;100578.28;;;-1.35;100.00
47726;BME280;33483;48.294;16.388;2023-03-01T02:46:51;100590.25;;;-1.32;100.00
47726;BME280;33483;48.294;16.388;2023-03-01T02:49:30;100579.28;;;-1.29;100.00
47726;BME280;33483;48.294;16.388;2023-03-01T02:57:13;100583.34;;;-1.17;100.00
47726;BME280;33483;48.294;16.388;2023-03-01T02:59:40;100571.59;;;-1.14;100.00
47726;BME280;33483;48.294;16.388;2023-03-01T03:02:23;100574.66;;;-1.12;100.00
47726;BME280;33483;48.294;16.388;2023-03-01T03:05:13;100581.13;;;-1.06;100.00
47726;BME280;33483;48.294;16.388;2023-03-01T03:07:42;100574.84;;;-1.03;100.00
47726;BME280;33483;48.294;16.388;2023-03-01T03:10:11;100567.44;;;-1.02;100.00
47726;BME280;33483;48.294;16.388;2023-03-01T03:12:39;100572.06;;;-0.99;100.00
47726;BME280;33483;48.294;16.388;2023-03-01T03:15:08;100570.06;;;-0.99;100.00
47726;BME280;33483;48.294;16.388;2023-03-01T03:17:39;100566.84;;;-0.94;100.00
47726;BME280;33483;48.294;16.388;2023-03-01T03:20:07;100565.31;;;-0.95;100.00
47726;BME280;33483;48.294;16.388;2023-03-01T03:22:41;100562.00;;;-0.86;100.00
47726;BME280;33483;48.294;16.388;2023-03-01T03:25:10;100562.34;;;-0.84;100.00
47726;BME280;33483;48.294;16.388;2023-03-01T03:27:37;100561.50;;;-0.81;100.00
47726;BME280;33483;48.294;16.388;2023-03-01T03:30:05;100558.69;;;-0.78;100.00
47726;BME280;33483;48.294;16.388;2023-03-01T03:32:36;100549.34;;;-0.77;100.00
47726;BME280;33483;48.294;16.388;2023-03-01T03:35:03;100554.44;;;-0.79;100.00
47726;BME280;33483;48.294;16.388;2023-03-01T03:37:36;100543.13;;;-0.77;100.00
47726;BME280;33483;48.294;16.388;2023-03-01T03:40:22;100546.53;;;-0.73;100.00
47726;BME280;33483;48.294;16.388;2023-03-01T03:42:50;100551.13;;;-0.70;100.00
47726;BME280;33483;48.294;16.388;2023-03-01T03:45:17;100560.81;;;-0.69;100.00
47726;BME280;33483;48.294;16.388;2023-03-01T03:47:44;100552.66;;;-0.69;100.00
47726;BME280;33483;48.294;16.388;2023-03-01T03:50:12;100550.34;;;-0.71;100.00
47726;BME280;33483;48.294;16.388;2023-03-01T03:52:39;100548.41;;;-0.70;100.00
47726;BME280;33483;48.294;16.388;2023-03-01T03:55:07;100556.56;;;-0.70;100.00
47726;BME280;33483;48.294;16.388;2023-03-01T03:57:37;100553.75;;;-0.67;100.00
47726;BME280;33483;48.294;16.388;2023-03-01T04:00:05;100551.03;;;-0.67;100.00
47726;BME280;33483;48.294;16.388;2023-03-01T04:02:41;100552.91;;;-0.64;100.00
47726;BME280;33483;48.294;16.388;2023-03-01T04:05:09;100548.22;;;-0.63;100.00
47726;BME280;33483;48.294;16.388;2023-03-01T04:07:37;100544.75;;;-0.64;100.00
47726;BME280;33483;48.294;16.388;2023-03-01T04:10:05;100544.31;;;-0.62;100.00
47726;BME280;33483;48.294;16.388;2023-03-01T04:12:34;100539.28;;;-0.64;100.00
47726;BME280;33483;48.294;16.388;2023-03-01T04:15:02;100544.06;;;-0.68;100.00
47726;BME280;33483;48.294;16.388;2023-03-01T04:17:43;100542.53;;;-0.69;100.00
47726;BME280;33483;48.294;16.388;2023-03-01T04:20:11;100543.41;;;-0.72;100.00
47726;BME280;33483;48.294;16.388;2023-03-01T04:22:40;100543.81;;;-0.73;100.00
47726;BME280;33483;48.294;16.388;2023-03-01T04:25:07;100545.78;;;-0.74;100.00
47726;BME280;33483;48.294;16.388;2023-03-01T04:27:35;100551.91;;;-0.70;100.00
47726;BME280;33483;48.294;16.388;2023-03-01T04:30:02;100547.63;;;-0.71;100.00
47726;BME280;33483;48.294;16.388;2023-03-01T04:32:30;100549.59;;;-0.71;100.00
47726;BME280;33483;48.294;16.388;2023-03-01T04:34:59;100555.47;;;-0.73;100.00
47726;BME280;33483;48.294;16.388;2023-03-01T04:37:27;100548.75;;;-0.68;100.00
47726;BME280;33483;48.294;16.388;2023-03-01T04:39:54;100556.47;;;-0.67;100.00
47726;BME280;33483;48.294;16.388;2023-03-01T04:42:21;100541.09;;;-0.73;100.00
47726;BME280;33483;48.294;16.388;2023-03-01T04:44:48;100548.06;;;-0.72;100.00
47726;BME280;33483;48.294;16.388;2023-03-01T04:47:18;100544.91;;;-0.71;100.00
47726;BME280;33483;48.294;16.388;2023-03-01T04:49:45;100545.25;;;-0.69;100.00
47726;BME280;33483;48.294;16.388;2023-03-01T04:52:12;100551.91;;;-0.70;100.00
47726;BME280;33483;48.294;16.388;2023-03-01T04:54:39;100547.97;;;-0.69;100.00
47726;BME280;33483;48.294;16.388;2023-03-01T04:57:06;100551.81;;;-0.66;100.00
47726;BME280;33483;48.294;16.388;2023-03-01T04:59:33;100552.13;;;-0.64;100.00
47726;BME280;33483;48.294;16.388;2023-03-01T05:02:03;100553.69;;;-0.63;100.00
47726;BME280;33483;48.294;16.388;2023-03-01T05:04:30;100555.19;;;-0.62;100.00
47726;BME280;33483;48.294;16.388;2023-03-01T05:06:57;100551.38;;;-0.65;100.00
47726;BME280;33483;48.294;16.388;2023-03-01T05:09:25;100552.56;;;-0.66;100.00
47726;BME280;33483;48.294;16.388;2023-03-01T05:11:55;100550.19;;;-0.64;100.00
47726;BME280;33483;48.294;16.388;2023-03-01T05:14:22;100554.03;;;-0.61;100.00
47726;BME280;33483;48.294;16.388;2023-03-01T05:16:49;100557.47;;;-0.61;100.00
47726;BME280;33483;48.294;16.388;2023-03-01T05:19:18;100553.59;;;-0.60;100.00
47726;BME280;33483;48.294;16.388;2023-03-01T05:21:49;100560.56;;;-0.59;100.00
47726;BME280;33483;48.294;16.388;2023-03-01T05:24:30;100566.78;;;-0.58;100.00
47726;BME280;33483;48.294;16.388;2023-03-01T05:27:01;100571.69;;;-0.53;100.00
47726;BME280;33483;48.294;16.388;2023-03-01T05:29:29;100559.19;;;-0.51;100.00
47726;BME280;33483;48.294;16.388;2023-03-01T05:32:02;100551.34;;;-0.49;100.00
47726;BME280;33483;48.294;16.388;2023-03-01T05:34:33;100551.25;;;-0.45;100.00
47726;BME280;33483;48.294;16.388;2023-03-01T05:37:02;100558.34;;;-0.48;100.00
47726;BME280;33483;48.294;16.388;2023-03-01T05:39:29;100565.63;;;-0.45;100.00
47726;BME280;33483;48.294;16.388;2023-03-01T05:41:57;100559.75;;;-0.43;100.00
47726;BME280;33483;48.294;16.388;2023-03-01T05:44:24;100573.28;;;-0.40;100.00
47726;BME280;33483;48.294;16.388;2023-03-01T05:46:52;100569.72;;;-0.37;100.00
47726;BME280;33483;48.294;16.388;2023-03-01T05:49:19;100572.75;;;-0.35;100.00
47726;BME280;33483;48.294;16.388;2023-03-01T05:51:50;100587.06;;;-0.31;100.00
47726;BME280;33483;48.294;16.388;2023-03-01T05:54:18;100588.59;;;-0.30;100.00
47726;BME280;33483;48.294;16.388;2023-03-01T05:56:45;100592.75;;;-0.25;100.00
47726;BME280;33483;48.294;16.388;2023-03-01T05:59:13;100587.22;;;-0.22;100.00
47726;BME280;33483;48.294;16.388;2023-03-01T06:01:41;100582.13;;;-0.20;100.00
47726;BME280;33483;48.294;16.388;2023-03-01T06:04:08;100578.53;;;-0.17;100.00
47726;BME280;33483;48.294;16.388;2023-03-01T06:06:36;100574.94;;;-0.14;100.00
47726;BME280;33483;48.294;16.388;2023-03-01T06:09:04;100587.19;;;-0.06;100.00
47726;BME280;33483;48.294;16.388;2023-03-01T06:11:33;100587.00;;;0.02;100.00
47726;BME280;33483;48.294;16.388;2023-03-01T06:14:03;100585.59;;;0.10;100.00
47726;BME280;33483;48.294;16.388;2023-03-01T06:16:30;100589.34;;;0.16;100.00
47726;BME280;33483;48.294;16.388;2023-03-01T06:18:58;100583.69;;;0.23;100.00
47726;BME280;33483;48.294;16.388;2023-03-01T06:21:25;100579.00;;;0.23;100.00
47726;BME280;33483;48.294;16.388;2023-03-01T06:23:52;100578.91;;;0.27;100.00
47726;BME280;33483;48.294;16.388;2023-03-01T06:26:19;100588.63;;;0.28;100.00
47726;BME280;33483;48.294;16.388;2023-03-01T06:28:49;100582.72;;;0.29;100.00
47726;BME280;33483;48.294;16.388;2023-03-01T06:31:16;100589.59;;;0.34;100.00
47726;BME280;33483;48.294;16.388;2023-03-01T06:33:44;100586.09;;;0.33;100.00
47726;BME280;33483;48.294;16.388;2023-03-01T06:36:11;100594.97;;;0.37;100.00
47726;BME280;33483;48.294;16.388;2023-03-01T06:38:38;100593.69;;;0.42;100.00
47726;BME280;33483;48.294;16.388;2023-03-01T06:41:07;100595.63;;;0.41;100.00
47726;BME280;33483;48.294;16.388;2023-03-01T06:43:34;100600.97;;;0.45;100.00
47726;BME280;33483;48.294;16.388;2023-03-01T06:46:05;100605.91;;;0.50;100.00
47726;BME280;33483;48.294;16.388;2023-03-01T06:48:33;100602.31;;;0.53;100.00
47726;BME280;33483;48.294;16.388;2023-03-01T06:51:01;100608.44;;;0.57;100.00
47726;BME280;33483;48.294;16.388;2023-03-01T06:53:28;100606.38;;;0.61;100.00
47726;BME280;33483;48.294;16.388;2023-03-01T06:55:59;100603.53;;;0.64;100.00
47726;BME280;33483;48.294;16.388;2023-03-01T06:58:26;100600.28;;;0.69;100.00
47726;BME280;33483;48.294;16.388;2023-03-01T07:00:54;100598.50;;;0.75;100.00
47726;BME280;33483;48.294;16.388;2023-03-01T07:03:20;100598.06;;;0.77;100.00
47726;BME280;33483;48.294;16.388;2023-03-01T07:05:49;100597.56;;;0.82;100.00
47726;BME280;33483;48.294;16.388;2023-03-01T07:08:16;100598.88;;;0.90;100.00
47726;BME280;33483;48.294;16.388;2023-03-01T07:10:43;100604.09;;;0.97;100.00
47726;BME280;33483;48.294;16.388;2023-03-01T07:13:13;100592.31;;;1.00;100.00
47726;BME280;33483;48.294;16.388;2023-03-01T07:15:40;100599.63;;;1.03;100.00
47726;BME280;33483;48.294;16.388;2023-03-01T07:18:07;100592.31;;;1.12;100.00
47726;BME280;33483;48.294;16.388;2023-03-01T07:20:34;100594.94;;;1.16;100.00
47726;BME280;33483;48.294;16.388;2023-03-01T07:23:01;100599.63;;;1.15;100.00
47726;BME280;33483;48.294;16.388;2023-03-01T07:25:28;100588.47;;;1.23;100.00
47726;BME280;33483;48.294;16.388;2023-03-01T07:27:55;100594.50;;;1.30;100.00
47726;BME280;33483;48.294;16.388;2023-03-01T07:30:23;100590.75;;;1.24;100.00
47726;BME280;33483;48.294;16.388;2023-03-01T07:32:52;100588.69;;;1.28;100.00
47726;BME280;33483;48.294;16.388;2023-03-01T07:35:22;100588.13;;;1.33;100.00
47726;BME280;33483;48.294;16.388;2023-03-01T07:37:49;100582.88;;;1.39;100.00
47726;BME280;33483;48.294;16.388;2023-03-01T07:40:16;100588.09;;;1.58;100.00
47726;BME280;33483;48.294;16.388;2023-03-01T07:42:43;100586.09;;;1.71;100.00
47726;BME280;33483;48.294;16.388;2023-03-01T07:45:11;100573.72;;;1.79;100.00
47726;BME280;33483;48.294;16.388;2023-03-01T07:47:38;100581.25;;;1.88;100.00
47726;BME280;33483;48.294;16.388;2023-03-01T07:50:10;100584.78;;;1.97;100.00
47726;BME280;33483;48.294;16.388;2023-03-01T07:52:37;100576.72;;;1.94;100.00
47726;BME280;33483;48.294;16.388;2023-03-01T07:55:04;100579.66;;;1.99;100.00
47726;BME280;33483;48.294;16.388;2023-03-01T07:57:34;100582.91;;;2.07;100.00
47726;BME280;33483;48.294;16.388;2023-03-01T08:00:02;100583.56;;;2.11;100.00
47726;BME280;33483;48.294;16.388;2023-03-01T08:02:39;100582.41;;;2.21;100.00
47726;BME280;33483;48.294;16.388;2023-03-01T08:05:09;100577.75;;;2.30;100.00
47726;BME280;33483;48.294;16.388;2023-03-01T08:07:36;100572.97;;;2.44;100.00
47726;BME280;33483;48.294;16.388;2023-03-01T08:10:04;100576.03;;;2.46;100.00
47726;BME280;33483;48.294;16.388;2023-03-01T08:12:31;100576.69;;;2.80;100.00
47726;BME280;33483;48.294;16.388;2023-03-01T08:14:58;100584.44;;;2.82;100.00
47726;BME280;33483;48.294;16.388;2023-03-01T08:17:25;100581.84;;;2.78;100.00
47726;BME280;33483;48.294;16.388;2023-03-01T08:19:55;100583.13;;;2.95;100.00
47726;BME280;33483;48.294;16.388;2023-03-01T08:22:22;100580.03;;;3.33;100.00
47726;BME280;33483;48.294;16.388;2023-03-01T08:24:49;100583.47;;;3.64;100.00
47726;BME280;33483;48.294;16.388;2023-03-01T08:27:16;100589.91;;;3.88;99.63
47726;BME280;33483;48.294;16.388;2023-03-01T08:29:43;100581.06;;;3.84;93.85
47726;BME280;33483;48.294;16.388;2023-03-01T08:32:13;100582.56;;;4.12;95.21
47726;BME280;33483;48.294;16.388;2023-03-01T08:34:41;100590.81;;;4.12;90.52
47726;BME280;33483;48.294;16.388;2023-03-01T08:37:10;100595.69;;;4.17;87.07
47726;BME280;33483;48.294;16.388;2023-03-01T08:39:40;100598.09;;;4.06;91.15
47726;BME280;33483;48.294;16.388;2023-03-01T08:42:07;100598.72;;;4.10;88.88
47726;BME280;33483;48.294;16.388;2023-03-01T08:44:34;100600.13;;;4.15;89.51
47726;BME280;33483;48.294;16.388;2023-03-01T08:47:01;100589.41;;;4.26;88.88
47726;BME280;33483;48.294;16.388;2023-03-01T08:49:30;100596.88;;;4.34;86.36
47726;BME280;33483;48.294;16.388;2023-03-01T08:51:59;100596.22;;;4.67;87.04
47726;BME280;33483;48.294;16.388;2023-03-01T08:54:26;100584.16;;;4.73;88.84
47726;BME280;33483;48.294;16.388;2023-03-01T08:56:53;100585.25;;;4.57;83.37
47726;BME280;33483;48.294;16.388;2023-03-01T08:59:21;100579.09;;;4.81;83.74
47726;BME280;33483;48.294;16.388;2023-03-01T09:01:47;100575.66;;;5.36;85.77
47726;BME280;33483;48.294;16.388;2023-03-01T09:04:15;100575.13;;;5.47;82.64
47726;BME280;33483;48.294;16.388;2023-03-01T09:06:43;100572.94;;;5.27;80.48
47726;BME280;33483;48.294;16.388;2023-03-01T09:09:12;100561.19;;;5.27;81.05
47726;BME280;33483;48.294;16.388;2023-03-01T09:11:41;100556.44;;;5.51;77.13
47726;BME280;33483;48.294;16.388;2023-03-01T09:14:09;100556.16;;;5.72;75.34
47726;BME280;33483;48.294;16.388;2023-03-01T09:16:36;100553.19;;;5.85;75.28
47726;BME280;33483;48.294;16.388;2023-03-01T09:19:03;100551.22;;;5.86;73.64
47726;BME280;33483;48.294;16.388;2023-03-01T09:21:31;100558.03;;;5.90;76.06
47726;BME280;33483;48.294;16.388;2023-03-01T09:24:11;100555.94;;;5.85;75.20
47726;BME280;33483;48.294;16.388;2023-03-01T09:26:39;100547.13;;;5.72;73.45
47726;BME280;33483;48.294;16.388;2023-03-01T09:29:06;100549.00;;;5.90;74.46
47726;BME280;33483;48.294;16.388;2023-03-01T09:31:36;100542.13;;;6.09;75.01
47726;BME280;33483;48.294;16.388;2023-03-01T09:34:04;100544.69;;;6.12;72.92
47726;BME280;33483;48.294;16.388;2023-03-01T09:36:33;100541.19;;;6.26;72.88
47726;BME280;33483;48.294;16.388;2023-03-01T09:39:01;100536.28;;;6.45;72.09
47726;BME280;33483;48.294;16.388;2023-03-01T09:44:16;100524.97;;;6.43;70.85
47726;BME280;33483;48.294;16.388;2023-03-01T09:46:47;100529.06;;;6.33;70.63
47726;BME280;33483;48.294;16.388;2023-03-01T09:49:15;100538.56;;;6.46;71.29
47726;BME280;33483;48.294;16.388;2023-03-01T09:51:50;100531.22;;;6.72;71.93
47726;BME280;33483;48.294;16.388;2023-03-01T09:54:23;100527.41;;;6.84;67.88
47726;BME280;33483;48.294;16.388;2023-03-01T09:59:25;100520.25;;;6.93;71.46
47726;BME280;33483;48.294;16.388;2023-03-01T10:02:03;100523.25;;;6.74;70.08
47726;BME280;33483;48.294;16.388;2023-03-01T10:09:40;100513.84;;;6.23;68.89
47726;BME280;33483;48.294;16.388;2023-03-01T10:12:12;100518.13;;;6.38;70.63
47726;BME280;33483;48.294;16.388;2023-03-01T10:17:20;100499.53;;;6.19;73.25
47726;BME280;33483;48.294;16.388;2023-03-01T10:19:51;100498.84;;;6.38;72.39
47726;BME280;33483;48.294;16.388;2023-03-01T10:24:51;100496.22;;;6.93;71.31
47726;BME280;33483;48.294;16.388;2023-03-01T10:27:23;100507.22;;;7.28;67.98
47726;BME280;33483;48.294;16.388;2023-03-01T10:32:20;100504.06;;;8.00;63.89
47726;BME280;33483;48.294;16.388;2023-03-01T10:34:51;100498.94;;;7.68;65.71
47726;BME280;33483;48.294;16.388;2023-03-01T10:37:19;100495.72;;;7.95;64.71
47726;BME280;33483;48.294;16.388;2023-03-01T10:42:31;100495.63;;;8.10;63.63
47726;BME280;33483;48.294;16.388;2023-03-01T10:47:45;100486.22;;;7.76;64.80
47726;BME280;33483;48.294;16.388;2023-03-01T10:50:20;100480.88;;;7.67;66.59
47726;BME280;33483;48.294;16.388;2023-03-01T10:53:01;100476.38;;;7.95;65.79
47726;BME280;33483;48.294;16.388;2023-03-01T10:55:36;100475.09;;;8.16;63.56
47726;BME280;33483;48.294;16.388;2023-03-01T11:00:33;100456.28;;;7.89;65.53
47726;BME280;33483;48.294;16.388;2023-03-01T11:03:13;100451.59;;;7.75;64.81
47726;BME280;33483;48.294;16.388;2023-03-01T11:05:58;100449.44;;;7.59;65.15
47726;BME280;33483;48.294;16.388;2023-03-01T11:08:44;100433.91;;;7.61;66.84
47726;BME280;33483;48.294;16.388;2023-03-01T11:13:55;100440.00;;;8.22;63.39
47726;BME280;33483;48.294;16.388;2023-03-01T11:16:27;100430.91;;;8.42;61.83
47726;BME280;33483;48.294;16.388;2023-03-01T11:19:00;100425.16;;;8.45;66.26
47726;BME280;33483;48.294;16.388;2023-03-01T11:21:28;100420.31;;;8.35;63.27
47726;BME280;33483;48.294;16.388;2023-03-01T11:27:03;100417.81;;;8.37;63.21
47726;BME280;33483;48.294;16.388;2023-03-01T11:29:42;100427.34;;;7.59;64.80
47726;BME280;33483;48.294;16.388;2023-03-01T11:32:15;100420.56;;;7.34;66.00
47726;BME280;33483;48.294;16.388;2023-03-01T11:34:47;100420.75;;;7.51;66.93
47726;BME280;33483;48.294;16.388;2023-03-01T11:37:22;100419.84;;;7.59;65.39
47726;BME280;33483;48.294;16.388;2023-03-01T11:39:54;100420.75;;;7.51;67.00
47726;BME280;33483;48.294;16.388;2023-03-01T11:42:42;100415.84;;;7.60;66.62
47726;BME280;33483;48.294;16.388;2023-03-01T11:45:11;100418.31;;;7.58;66.99
47726;BME280;33483;48.294;16.388;2023-03-01T11:50:47;100419.06;;;7.79;66.04
47726;BME280;33483;48.294;16.388;2023-03-01T11:56:11;100407.66;;;7.97;65.61
47726;BME280;33483;48.294;16.388;2023-03-01T12:01:28;100411.72;;;8.27;65.28
47726;BME280;33483;48.294;16.388;2023-03-01T12:11:46;100404.56;;;8.15;64.28
47726;BME280;33483;48.294;16.388;2023-03-01T12:14:21;100407.63;;;8.23;64.27
47726;BME280;33483;48.294;16.388;2023-03-01T12:19:39;100409.19;;;7.98;65.99
47726;BME280;33483;48.294;16.388;2023-03-01T12:22:29;100401.75;;;8.10;67.47
47726;BME280;33483;48.294;16.388;2023-03-01T12:43:50;100379.28;;;8.59;65.62
47726;BME280;33483;48.294;16.388;2023-03-01T12:51:35;100371.22;;;8.55;65.84
47726;BME280;33483;48.294;16.388;2023-03-01T12:54:27;100369.47;;;8.52;66.82
47726;BME280;33483;48.294;16.388;2023-03-01T13:00:27;100372.72;;;8.56;65.51
47726;BME280;33483;48.294;16.388;2023-03-01T13:03:04;100364.63;;;8.42;68.27
47726;BME280;33483;48.294;16.388;2023-03-01T13:08:26;100356.06;;;8.40;69.06
47726;BME280;33483;48.294;16.388;2023-03-01T13:10:58;100356.72;;;8.66;69.48
47726;BME280;33483;48.294;16.388;2023-03-01T13:17:25;100345.94;;;8.68;66.25
47726;BME280;33483;48.294;16.388;2023-03-01T13:19:57;100339.50;;;8.93;67.28
47726;BME280;33483;48.294;16.388;2023-03-01T13:22:25;100348.56;;;8.93;67.69
47726;BME280;33483;48.294;16.388;2023-03-01T13:25:02;100354.88;;;8.99;65.49
47726;BME280;33483;48.294;16.388;2023-03-01T13:27:30;100355.09;;;9.01;67.50
47726;BME280;33483;48.294;16.388;2023-03-01T13:29:58;100348.75;;;8.84;69.01
47726;BME280;33483;48.294;16.388;2023-03-01T13:32:30;100355.19;;;8.23;69.09
47726;BME280;33483;48.294;16.388;2023-03-01T13:41:13;100330.91;;;8.01;72.38
47726;BME280;33483;48.294;16.388;2023-03-01T13:43:41;100329.28;;;8.20;73.58
47726;BME280;33483;48.294;16.388;2023-03-01T13:46:15;100331.66;;;8.33;71.65
47726;BME280;33483;48.294;16.388;2023-03-01T13:48:44;100317.38;;;8.34;71.28
47726;BME280;33483;48.294;16.388;2023-03-01T13:51:12;100320.59;;;8.27;70.83
47726;BME280;33483;48.294;16.388;2023-03-01T13:53:43;100317.84;;;7.96;71.56
47726;BME280;33483;48.294;16.388;2023-03-01T13:56:16;100309.56;;;7.65;73.06
47726;BME280;33483;48.294;16.388;2023-03-01T13:59:27;100302.72;;;7.55;74.27
47726;BME280;33483;48.294;16.388;2023-03-01T14:01:35;100299.69;;;7.53;75.45
47726;BME280;33483;48.294;16.388;2023-03-01T14:04:03;100294.59;;;7.46;76.00
47726;BME280;33483;48.294;16.388;2023-03-01T14:06:41;100296.38;;;7.49;77.62
47726;BME280;33483;48.294;16.388;2023-03-01T14:17:05;100289.34;;;7.48;76.53
47726;BME280;33483;48.294;16.388;2023-03-01T14:19:36;100287.50;;;7.39;76.26
47726;BME280;33483;48.294;16.388;2023-03-01T14:24:38;100273.94;;;7.36;75.68
47726;BME280;33483;48.294;16.388;2023-03-01T14:27:12;100283.03;;;7.42;76.73
47726;BME280;33483;48.294;16.388;2023-03-01T14:29:40;100278.06;;;7.46;77.30
47726;BME280;33483;48.294;16.388;2023-03-01T14:32:08;100260.53;;;7.49;78.34
47726;BME280;33483;48.294;16.388;2023-03-01T14:34:35;100269.78;;;7.46;77.02
47726;BME280;33483;48.294;16.388;2023-03-01T14:37:22;100260.97;;;7.42;75.42
47726;BME280;33483;48.294;16.388;2023-03-01T14:39:51;100260.19;;;7.41;77.20
47726;BME280;33483;48.294;16.388;2023-03-01T14:42:23;100270.22;;;7.39;74.56
47726;BME280;33483;48.294;16.388;2023-03-01T14:44:55;100262.66;;;7.34;75.49